sensor_id;sensor_type;location;lat;lon;timestamp;pressure;altitude;pressure_sealevel;temperature;humidity
69173;BME280;56280;49.662;8.408;2022-09-09T00:00:24;100141.41;;;16.40;77.19
69173;BME280;56280;49.662;8.408;2022-09-09T00:03:02;100241.88;;;17.02;77.10
69173;BME280;56280;49.662;8.408;2022-09-09T00:07:59;100227.94;;;16.98;77.54
69173;BME280;56280;49.662;8.408;2022-09-09T00:10:32;100143.91;;;16.41;77.81
69173;BME280;56280;49.662;8.408;2022-09-09T00:13:15;100215.38;;;16.90;77.44
69173;BME280;56280;49.662;8.408;2022-09-09T00:21:28;100102.38;;;16.29;78.31
69173;BME280;56280;49.662;8.408;2022-09-09T00:24:11;100195.44;;;16.85;78.65
69173;BME280;56280;49.662;8.408;2022-09-09T00:26:45;100136.34;;;16.45;78.64
69173;BME280;56280;49.662;8.408;2022-09-09T00:29:36;100226.59;;;17.02;78.78
69173;BME280;56280;49.662;8.408;2022-09-09T00:32:22;100134.56;;;16.37;79.19
69173;BME280;56280;49.662;8.408;2022-09-09T00:35:03;100183.06;;;16.67;79.51
69173;BME280;56280;49.662;8.408;2022-09-09T00:37:29;100215.59;;;16.89;79.76
69173;BME280;56280;49.662;8.408;2022-09-09T00:39:59;100217.06;;;16.91;79.69
69173;BME280;56280;49.662;8.408;2022-09-09T00:48:06;100165.34;;;16.50;79.72
69173;BME280;56280;49.662;8.408;2022-09-09T00:50:56;100159.66;;;16.45;79.72
69173;BME280;56280;49.662;8.408;2022-09-09T00:53:51;100156.63;;;16.48;80.04
69173;BME280;56280;49.662;8.408;2022-09-09T00:56:23;100202.00;;;16.66;80.40
69173;BME280;56280;49.662;8.408;2022-09-09T00:59:10;100224.13;;;16.76;80.24
69173;BME280;56280;49.662;8.408;2022-09-09T01:01:39;100220.59;;;16.75;80.08
69173;BME280;56280;49.662;8.408;2022-09-09T01:04:13;100203.53;;;16.68;80.53
69173;BME280;56280;49.662;8.408;2022-09-09T01:06:41;100219.94;;;16.73;80.64
69173;BME280;56280;49.662;8.408;2022-09-09T01:09:32;100208.91;;;16.68;80.27
69173;BME280;56280;49.662;8.408;2022-09-09T01:12:14;100188.47;;;16.51;80.37
69173;BME280;56280;49.662;8.408;2022-09-09T01:14:51;100198.53;;;16.57;80.32
69173;BME280;56280;49.662;8.408;2022-09-09T01:17:40;100191.31;;;16.49;80.49
69173;BME280;56280;49.662;8.408;2022-09-09T01:20:14;100206.56;;;16.57;80.36
69173;BME280;56280;49.662;8.408;2022-09-09T01:27:51;100191.66;;;16.46;81.08
69173;BME280;56280;49.662;8.408;2022-09-09T01:30:19;100183.16;;;16.34;80.92
69173;BME280;56280;49.662;8.408;2022-09-09T01:32:50;100208.56;;;16.47;80.99
69173;BME280;56280;49.662;8.408;2022-09-09T01:37:57;100201.41;;;16.39;81.69
69173;BME280;56280;49.662;8.408;2022-09-09T01:40:24;100215.81;;;16.38;81.52
69173;BME280;56280;49.662;8.408;2022-09-09T01:42:50;100220.66;;;16.43;81.75
69173;BME280;56280;49.662;8.408;2022-09-09T01:45:16;100205.75;;;16.32;81.88
69173;BME280;56280;49.662;8.408;2022-09-09T01:47:42;100197.72;;;16.32;81.96
69173;BME280;56280;49.662;8.408;2022-09-09T01:50:10;100206.56;;;16.32;81.67
69173;BME280;56280;49.662;8.408;2022-09-09T01:52:37;100192.84;;;16.27;82.59
69173;BME280;56280;49.662;8.408;2022-09-09T01:55:03;100220.84;;;16.33;82.75
69173;BME280;56280;49.662;8.408;2022-09-09T01:57:50;100201.06;;;16.17;82.95
69173;BME280;56280;49.662;8.408;2022-09-09T02:00:20;100207.63;;;16.23;83.09
69173;BME280;56280;49.662;8.408;2022-09-09T02:06:02;100220.84;;;16.25;82.87
69173;BME280;56280;49.662;8.408;2022-09-09T02:08:40;100214.97;;;16.21;83.27
69173;BME280;56280;49.662;8.408;2022-09-09T02:11:12;100222.66;;;16.24;84.10
69173;BME280;56280;49.662;8.408;2022-09-09T02:13:39;100223.19;;;16.28;83.05
69173;BME280;56280;49.662;8.408;2022-09-09T02:16:08;100226.03;;;16.34;82.62
69173;BME280;56280;49.662;8.408;2022-09-09T02:19:00;100226.03;;;16.34;83.03
69173;BME280;56280;49.662;8.408;2022-09-09T02:21:28;100220.50;;;16.36;82.63
69173;BME280;56280;49.662;8.408;2022-09-09T02:23:55;100214.97;;;16.37;82.39
69173;BME280;56280;49.662;8.408;2022-09-09T02:26:23;100221.50;;;16.43;82.90
69173;BME280;56280;49.662;8.408;2022-09-09T02:28:50;100200.56;;;16.30;82.70
69173;BME280;56280;49.662;8.408;2022-09-09T02:31:18;100203.25;;;16.30;82.92
69173;BME280;56280;49.662;8.408;2022-09-09T02:33:50;100215.31;;;16.43;82.90
69173;BME280;56280;49.662;8.408;2022-09-09T02:36:18;100213.78;;;16.48;82.71
69173;BME280;56280;49.662;8.408;2022-09-09T02:38:46;100211.44;;;16.45;82.50
69173;BME280;56280;49.662;8.408;2022-09-09T02:41:18;100226.66;;;16.53;82.85
69173;BME280;56280;49.662;8.408;2022-09-09T02:43:44;100206.25;;;16.52;82.09
69173;BME280;56280;49.662;8.408;2022-09-09T02:46:32;100197.34;;;16.43;82.40
69173;BME280;56280;49.662;8.408;2022-09-09T02:49:05;100192.00;;;16.35;82.58
69173;BME280;56280;49.662;8.408;2022-09-09T02:56:38;100205.09;;;16.38;83.21
69173;BME280;56280;49.662;8.408;2022-09-09T02:59:05;100179.44;;;16.27;82.73
69173;BME280;56280;49.662;8.408;2022-09-09T03:01:30;100191.84;;;16.28;82.93
69173;BME280;56280;49.662;8.408;2022-09-09T03:03:56;100190.16;;;16.35;82.75
69173;BME280;56280;49.662;8.408;2022-09-09T03:06:22;100183.81;;;16.28;82.59
69173;BME280;56280;49.662;8.408;2022-09-09T03:08:47;100208.91;;;16.44;82.70
69173;BME280;56280;49.662;8.408;2022-09-09T03:11:14;100195.03;;;16.32;82.14
69173;BME280;56280;49.662;8.408;2022-09-09T03:13:39;100212.44;;;16.44;82.29
69173;BME280;56280;49.662;8.408;2022-09-09T03:16:05;100184.47;;;16.30;82.13
69173;BME280;56280;49.662;8.408;2022-09-09T03:18:30;100199.88;;;16.36;81.48
69173;BME280;56280;49.662;8.408;2022-09-09T03:20:57;100196.88;;;16.23;82.01
69173;BME280;56280;49.662;8.408;2022-09-09T03:23:22;100201.75;;;16.28;81.81
69173;BME280;56280;49.662;8.408;2022-09-09T03:25:51;100220.34;;;16.37;81.77
69173;BME280;56280;49.662;8.408;2022-09-09T03:28:17;100196.03;;;16.22;81.40
69173;BME280;56280;49.662;8.408;2022-09-09T03:30:42;100211.78;;;16.26;81.86
69173;BME280;56280;49.662;8.408;2022-09-09T03:33:08;100216.47;;;16.32;82.33
69173;BME280;56280;49.662;8.408;2022-09-09T03:35:33;100183.47;;;16.07;82.11
69173;BME280;56280;49.662;8.408;2022-09-09T03:37:58;100189.53;;;16.09;82.13
69173;BME280;56280;49.662;8.408;2022-09-09T03:40:26;100217.81;;;16.19;81.97
69173;BME280;56280;49.662;8.408;2022-09-09T03:42:51;100227.69;;;16.27;82.18
69173;BME280;56280;49.662;8.408;2022-09-09T03:45:16;100218.66;;;16.20;82.54
69173;BME280;56280;49.662;8.408;2022-09-09T03:47:42;100185.97;;;16.08;82.42
69173;BME280;56280;49.662;8.408;2022-09-09T03:50:07;100184.00;;;16.10;82.71
69173;BME280;56280;49.662;8.408;2022-09-09T03:52:39;100208.44;;;16.23;82.51
69173;BME280;56280;49.662;8.408;2022-09-09T03:55:06;100221.00;;;16.31;82.43
69173;BME280;56280;49.662;8.408;2022-09-09T03:57:32;100200.56;;;16.22;82.66
69173;BME280;56280;49.662;8.408;2022-09-09T04:00:00;100216.31;;;16.33;82.60
69173;BME280;56280;49.662;8.408;2022-09-09T04:02:26;100204.44;;;16.28;82.44
69173;BME280;56280;49.662;8.408;2022-09-09T04:04:51;100178.13;;;16.15;82.58
69173;BME280;56280;49.662;8.408;2022-09-09T04:07:16;100193.53;;;16.21;82.52
69173;BME280;56280;49.662;8.408;2022-09-09T04:09:42;100209.59;;;16.29;83.00
69173;BME280;56280;49.662;8.408;2022-09-09T04:12:07;100208.59;;;16.30;82.75
69173;BME280;56280;49.662;8.408;2022-09-09T04:14:33;100210.13;;;16.25;83.33
69173;BME280;56280;49.662;8.408;2022-09-09T04:16:58;100169.09;;;15.99;83.27
69173;BME280;56280;49.662;8.408;2022-09-09T04:19:24;100207.25;;;16.18;83.50
69173;BME280;56280;49.662;8.408;2022-09-09T04:21:50;100220.31;;;16.21;83.74
69173;BME280;56280;49.662;8.408;2022-09-09T04:24:17;100192.69;;;16.04;83.94
69173;BME280;56280;49.662;8.408;2022-09-09T04:26:42;100196.22;;;16.04;84.56
69173;BME280;56280;49.662;8.408;2022-09-09T04:29:08;100194.53;;;15.95;84.39
69173;BME280;56280;49.662;8.408;2022-09-09T04:31:33;100192.88;;;15.94;85.19
69173;BME280;56280;49.662;8.408;2022-09-09T04:33:59;100210.09;;;15.92;85.02
69173;BME280;56280;49.662;8.408;2022-09-09T04:36:30;100216.81;;;15.88;85.37
69173;BME280;56280;49.662;8.408;2022-09-09T04:38:55;100198.38;;;15.76;85.32
69173;BME280;56280;49.662;8.408;2022-09-09T04:41:20;100224.84;;;15.88;85.16
69173;BME280;56280;49.662;8.408;2022-09-09T04:43:46;100227.53;;;15.88;85.52
69173;BME280;56280;49.662;8.408;2022-09-09T04:46:11;100239.91;;;15.97;85.66
69173;BME280;56280;49.662;8.408;2022-09-09T04:48:37;100216.66;;;15.89;85.31
69173;BME280;56280;49.662;8.408;2022-09-09T04:51:04;100248.16;;;16.12;85.09
69173;BME280;56280;49.662;8.408;2022-09-09T04:53:30;100206.75;;;15.90;85.29
69173;BME280;56280;49.662;8.408;2022-09-09T04:56:12;100234.03;;;15.93;85.19
69173;BME280;56280;49.662;8.408;2022-09-09T04:58:39;100243.44;;;16.06;85.37
69173;BME280;56280;49.662;8.408;2022-09-09T05:01:12;100245.09;;;16.07;85.44
69173;BME280;56280;49.662;8.408;2022-09-09T05:03:38;100245.47;;;16.03;85.16
69173;BME280;56280;49.662;8.408;2022-09-09T05:06:15;100242.09;;;16.01;85.52
69173;BME280;56280;49.662;8.408;2022-09-09T05:08:42;100230.38;;;16.02;85.18
69173;BME280;56280;49.662;8.408;2022-09-09T05:11:25;100233.72;;;15.96;85.03
69173;BME280;56280;49.662;8.408;2022-09-09T05:13:51;100263.91;;;16.15;85.16
69173;BME280;56280;49.662;8.408;2022-09-09T05:16:17;100253.66;;;16.10;85.13
69173;BME280;56280;49.662;8.408;2022-09-09T05:18:43;100248.63;;;16.07;85.08
69173;BME280;56280;49.662;8.408;2022-09-09T05:21:13;100261.03;;;16.16;84.77
69173;BME280;56280;49.662;8.408;2022-09-09T05:23:38;100230.88;;;15.98;84.47
69173;BME280;56280;49.662;8.408;2022-09-09T05:26:05;100248.47;;;16.00;84.90
69173;BME280;56280;49.662;8.408;2022-09-09T05:28:34;100253.13;;;15.98;85.10
69173;BME280;56280;49.662;8.408;2022-09-09T05:31:05;100267.06;;;16.10;85.24
69173;BME280;56280;49.662;8.408;2022-09-09T05:33:33;100254.16;;;16.06;84.94
69173;BME280;56280;49.662;8.408;2022-09-09T05:36:04;100257.19;;;16.11;85.29
69173;BME280;56280;49.662;8.408;2022-09-09T05:38:32;100243.13;;;16.09;85.23
69173;BME280;56280;49.662;8.408;2022-09-09T05:40:59;100251.50;;;16.22;84.96
69173;BME280;56280;49.662;8.408;2022-09-09T05:43:25;100255.34;;;16.36;84.78
69173;BME280;56280;49.662;8.408;2022-09-09T05:46:07;100281.50;;;16.58;83.74
69173;BME280;56280;49.662;8.408;2022-09-09T05:48:35;100266.56;;;16.56;83.69
69173;BME280;56280;49.662;8.408;2022-09-09T05:51:02;100262.03;;;16.56;83.40
69173;BME280;56280;49.662;8.408;2022-09-09T05:53:28;100262.38;;;16.70;83.60
69173;BME280;56280;49.662;8.408;2022-09-09T05:56:04;100270.41;;;16.70;83.01
69173;BME280;56280;49.662;8.408;2022-09-09T05:58:34;100236.75;;;16.51;82.98
69173;BME280;56280;49.662;8.408;2022-09-09T06:01:10;100287.66;;;16.92;82.75
69173;BME280;56280;49.662;8.408;2022-09-09T06:03:39;100280.63;;;16.99;82.39
69173;BME280;56280;49.662;8.408;2022-09-09T06:06:10;100280.63;;;16.91;81.90
69173;BME280;56280;49.662;8.408;2022-09-09T06:08:38;100288.66;;;16.99;81.78
69173;BME280;56280;49.662;8.408;2022-09-09T06:11:08;100287.16;;;16.97;81.44
69173;BME280;56280;49.662;8.408;2022-09-09T06:13:34;100286.97;;;16.98;81.72
69173;BME280;56280;49.662;8.408;2022-09-09T06:16:02;100252.47;;;16.70;81.70
69173;BME280;56280;49.662;8.408;2022-09-09T06:18:27;100245.75;;;16.74;82.06
69173;BME280;56280;49.662;8.408;2022-09-09T06:21:02;100281.22;;;17.18;81.65
69173;BME280;56280;49.662;8.408;2022-09-09T06:23:34;100283.50;;;17.45;81.86
69173;BME280;56280;49.662;8.408;2022-09-09T06:26:29;100232.59;;;17.52;80.24
69173;BME280;56280;49.662;8.408;2022-09-09T06:28:58;100242.59;;;17.66;79.58
69173;BME280;56280;49.662;8.408;2022-09-09T06:31:34;100290.59;;;18.01;78.53
69173;BME280;56280;49.662;8.408;2022-09-09T06:34:08;100248.09;;;17.73;78.48
69173;BME280;56280;49.662;8.408;2022-09-09T06:36:36;100271.91;;;17.76;78.42
69173;BME280;56280;49.662;8.408;2022-09-09T06:39:06;100190.72;;;17.35;78.31
69173;BME280;56280;49.662;8.408;2022-09-09T06:41:32;100200.78;;;17.41;76.81
69173;BME280;56280;49.662;8.408;2022-09-09T06:44:02;100220.13;;;17.59;77.24
69173;BME280;56280;49.662;8.408;2022-09-09T06:46:31;100204.31;;;17.64;77.99
69173;BME280;56280;49.662;8.408;2022-09-09T06:49:07;100202.38;;;17.81;77.56
69173;BME280;56280;49.662;8.408;2022-09-09T06:51:34;100191.41;;;17.91;76.87
69173;BME280;56280;49.662;8.408;2022-09-09T06:54:01;100266.22;;;18.49;76.33
69173;BME280;56280;49.662;8.408;2022-09-09T06:56:35;100275.50;;;18.61;74.98
69173;BME280;56280;49.662;8.408;2022-09-09T06:59:03;100285.91;;;18.64;74.84
69173;BME280;56280;49.662;8.408;2022-09-09T07:01:31;100263.81;;;18.54;74.65
69173;BME280;56280;49.662;8.408;2022-09-09T07:03:58;100287.97;;;18.77;74.57
69173;BME280;56280;49.662;8.408;2022-09-09T07:06:29;100267.22;;;18.71;74.39
69173;BME280;56280;49.662;8.408;2022-09-09T07:08:57;100285.66;;;18.74;74.52
69173;BME280;56280;49.662;8.408;2022-09-09T07:11:26;100285.09;;;18.78;74.30
69173;BME280;56280;49.662;8.408;2022-09-09T07:13:56;100287.97;;;18.77;74.39
69173;BME280;56280;49.662;8.408;2022-09-09T07:16:22;100289.31;;;18.81;73.90
69173;BME280;56280;49.662;8.408;2022-09-09T07:18:51;100282.22;;;18.80;74.55
69173;BME280;56280;49.662;8.408;2022-09-09T07:21:17;100278.91;;;18.78;74.62
69173;BME280;56280;49.662;8.408;2022-09-09T07:23:44;100285.97;;;18.79;74.37
69173;BME280;56280;49.662;8.408;2022-09-09T07:26:11;100281.94;;;18.75;74.11
69173;BME280;56280;49.662;8.408;2022-09-09T07:28:37;100291.94;;;18.89;74.46
69173;BME280;56280;49.662;8.408;2022-09-09T07:31:03;100293.63;;;18.90;73.99
69173;BME280;56280;49.662;8.408;2022-09-09T07:33:30;100299.09;;;18.97;74.11
69173;BME280;56280;49.662;8.408;2022-09-09T07:36:05;100296.88;;;19.01;73.85
69173;BME280;56280;49.662;8.408;2022-09-09T07:38:31;100299.19;;;19.19;73.36
69173;BME280;56280;49.662;8.408;2022-09-09T07:41:05;100302.09;;;19.32;72.63
69173;BME280;56280;49.662;8.408;2022-09-09T07:43:30;100301.81;;;19.42;71.74
69173;BME280;56280;49.662;8.408;2022-09-09T07:46:00;100292.22;;;19.39;71.72
69173;BME280;56280;49.662;8.408;2022-09-09T07:48:28;100302.72;;;19.49;71.70
69173;BME280;56280;49.662;8.408;2022-09-09T07:51:09;100310.59;;;19.65;70.54
69173;BME280;56280;49.662;8.408;2022-09-09T07:53:35;100305.44;;;20.00;71.41
69173;BME280;56280;49.662;8.408;2022-09-09T07:56:09;100306.22;;;20.37;71.52
69173;BME280;56280;49.662;8.408;2022-09-09T07:58:39;100309.13;;;20.79;68.35
69173;BME280;56280;49.662;8.408;2022-09-09T08:01:19;100295.19;;;21.10;65.90
69173;BME280;56280;49.662;8.408;2022-09-09T08:03:46;100295.63;;;21.49;65.15
69173;BME280;56280;49.662;8.408;2022-09-09T08:06:12;100302.34;;;21.60;64.91
69173;BME280;56280;49.662;8.408;2022-09-09T08:08:39;100293.28;;;21.88;62.18
69173;BME280;56280;49.662;8.408;2022-09-09T08:11:09;100305.00;;;22.08;61.47
69173;BME280;56280;49.662;8.408;2022-09-09T08:13:36;100311.88;;;22.11;60.74
69173;BME280;56280;49.662;8.408;2022-09-09T08:16:10;100313.94;;;22.02;60.70
69173;BME280;56280;49.662;8.408;2022-09-09T08:18:36;100292.69;;;21.92;60.73
69173;BME280;56280;49.662;8.408;2022-09-09T08:23:37;100322.63;;;21.84;61.00
69173;BME280;56280;49.662;8.408;2022-09-09T08:26:06;100316.78;;;21.80;62.32
69173;BME280;56280;49.662;8.408;2022-09-09T08:28:32;100323.44;;;21.84;61.15
69173;BME280;56280;49.662;8.408;2022-09-09T08:31:11;100323.03;;;21.81;61.52
69173;BME280;56280;49.662;8.408;2022-09-09T08:33:37;100329.03;;;21.76;60.47
69173;BME280;56280;49.662;8.408;2022-09-09T08:36:04;100326.72;;;21.73;61.91
69173;BME280;56280;49.662;8.408;2022-09-09T08:38:30;100330.25;;;21.67;61.72
69173;BME280;56280;49.662;8.408;2022-09-09T08:41:05;100328.19;;;21.69;61.37
69173;BME280;56280;49.662;8.408;2022-09-09T08:43:33;100325.88;;;21.66;61.63
69173;BME280;56280;49.662;8.408;2022-09-09T08:46:15;100313.91;;;21.47;61.71
69173;BME280;56280;49.662;8.408;2022-09-09T08:48:57;100327.50;;;21.60;62.38
69173;BME280;56280;49.662;8.408;2022-09-09T08:51:27;100317.22;;;21.84;62.12
69173;BME280;56280;49.662;8.408;2022-09-09T08:53:54;100319.75;;;22.06;61.88
69173;BME280;56280;49.662;8.408;2022-09-09T08:56:23;100327.78;;;22.34;62.02
69173;BME280;56280;49.662;8.408;2022-09-09T08:58:52;100313.22;;;22.48;60.51
69173;BME280;56280;49.662;8.408;2022-09-09T09:06:54;100327.63;;;23.09;60.29
69173;BME280;56280;49.662;8.408;2022-09-09T09:12:23;100330.94;;;22.64;57.95
69173;BME280;56280;49.662;8.408;2022-09-09T09:14:50;100327.38;;;22.44;57.43
69173;BME280;56280;49.662;8.408;2022-09-09T09:17:20;100314.25;;;22.40;58.49
69173;BME280;56280;49.662;8.408;2022-09-09T09:19:47;100318.16;;;22.25;57.67
69173;BME280;56280;49.662;8.408;2022-09-09T09:22:54;100327.75;;;22.27;57.93
69173;BME280;56280;49.662;8.408;2022-09-09T09:25:39;100327.91;;;22.12;59.29
69173;BME280;56280;49.662;8.408;2022-09-09T09:28:18;100322.47;;;22.06;59.56
69173;BME280;56280;49.662;8.408;2022-09-09T09:30:52;100333.72;;;22.02;60.38
69173;BME280;56280;49.662;8.408;2022-09-09T09:33:35;100335.50;;;21.75;61.30
69173;BME280;56280;49.662;8.408;2022-09-09T09:36:02;100310.63;;;21.52;61.89
69173;BME280;56280;49.662;8.408;2022-09-09T09:38:29;100327.75;;;21.65;62.21
69173;BME280;56280;49.662;8.408;2022-09-09T09:40:56;100306.34;;;21.71;62.44
69173;BME280;56280;49.662;8.408;2022-09-09T09:43:35;100300.16;;;21.83;62.76
69173;BME280;56280;49.662;8.408;2022-09-09T09:46:03;100314.34;;;21.99;63.91
69173;BME280;56280;49.662;8.408;2022-09-09T09:48:29;100307.53;;;22.16;63.37
69173;BME280;56280;49.662;8.408;2022-09-09T09:50:57;100294.88;;;22.37;61.50
69173;BME280;56280;49.662;8.408;2022-09-09T09:53:28;100296.56;;;22.45;61.47
69173;BME280;56280;49.662;8.408;2022-09-09T09:55:58;100305.72;;;22.57;60.36
69173;BME280;56280;49.662;8.408;2022-09-09T09:58:26;100304.69;;;22.65;59.65
69173;BME280;56280;49.662;8.408;2022-09-09T10:00:53;100303.00;;;22.57;59.75
69173;BME280;56280;49.662;8.408;2022-09-09T10:03:33;100305.31;;;22.80;58.46
69173;BME280;56280;49.662;8.408;2022-09-09T10:06:03;100307.38;;;22.78;58.47
69173;BME280;56280;49.662;8.408;2022-09-09T10:08:29;100306.13;;;22.87;59.69
69173;BME280;56280;49.662;8.408;2022-09-09T10:13:56;100298.16;;;23.33;58.12
69173;BME280;56280;49.662;8.408;2022-09-09T10:19:33;100299.31;;;23.57;55.35
69173;BME280;56280;49.662;8.408;2022-09-09T10:22:25;100306.59;;;23.63;54.92
69173;BME280;56280;49.662;8.408;2022-09-09T10:25:26;100303.50;;;23.59;55.51
69173;BME280;56280;49.662;8.408;2022-09-09T10:28:08;100297.00;;;23.67;56.94
69173;BME280;56280;49.662;8.408;2022-09-09T10:33:51;100289.75;;;23.54;55.93
69173;BME280;56280;49.662;8.408;2022-09-09T10:36:24;100282.22;;;23.56;57.24
69173;BME280;56280;49.662;8.408;2022-09-09T10:41:40;100269.09;;;23.53;56.44
69173;BME280;56280;49.662;8.408;2022-09-09T10:47:05;100284.13;;;23.56;55.12
69173;BME280;56280;49.662;8.408;2022-09-09T10:55:35;100250.22;;;23.26;54.41
69173;BME280;56280;49.662;8.408;2022-09-09T10:58:05;100256.09;;;23.23;54.87
69173;BME280;56280;49.662;8.408;2022-09-09T11:00:53;100269.44;;;23.25;54.88
69173;BME280;56280;49.662;8.408;2022-09-09T11:03:26;100272.94;;;23.32;54.89
69173;BME280;56280;49.662;8.408;2022-09-09T11:05:55;100274.19;;;23.36;54.78
69173;BME280;56280;49.662;8.408;2022-09-09T11:08:25;100272.31;;;23.30;54.76
69173;BME280;56280;49.662;8.408;2022-09-09T11:11:29;100261.31;;;23.11;54.40
69173;BME280;56280;49.662;8.408;2022-09-09T11:13:58;100252.59;;;22.96;55.27
69173;BME280;56280;49.662;8.408;2022-09-09T11:19:34;100262.75;;;23.21;54.56
69173;BME280;56280;49.662;8.408;2022-09-09T11:22:03;100266.53;;;23.00;56.33
69173;BME280;56280;49.662;8.408;2022-09-09T11:24:36;100263.63;;;22.94;56.90
69173;BME280;56280;49.662;8.408;2022-09-09T11:27:19;100258.84;;;22.83;56.60
69173;BME280;56280;49.662;8.408;2022-09-09T11:40:38;100258.56;;;23.32;54.60
69173;BME280;56280;49.662;8.408;2022-09-09T11:45:34;100260.91;;;23.15;53.79
69173;BME280;56280;49.662;8.408;2022-09-09T11:48:02;100256.91;;;23.24;53.39
69173;BME280;56280;49.662;8.408;2022-09-09T11:50:33;100255.63;;;23.26;53.59
69173;BME280;56280;49.662;8.408;2022-09-09T11:53:25;100250.28;;;23.13;53.29
69173;BME280;56280;49.662;8.408;2022-09-09T11:56:09;100270.47;;;23.24;53.51
69173;BME280;56280;49.662;8.408;2022-09-09T11:58:41;100276.53;;;23.19;53.85
69173;BME280;56280;49.662;8.408;2022-09-09T12:04:10;100263.44;;;23.61;52.28
69173;BME280;56280;49.662;8.408;2022-09-09T12:06:50;100262.28;;;23.37;51.04
69173;BME280;56280;49.662;8.408;2022-09-09T12:09:25;100267.31;;;23.34;51.23
69173;BME280;56280;49.662;8.408;2022-09-09T12:12:05;100268.56;;;23.38;52.44
69173;BME280;56280;49.662;8.408;2022-09-09T12:17:18;100285.56;;;23.58;50.92
69173;BME280;56280;49.662;8.408;2022-09-09T12:19:44;100280.81;;;23.47;51.10
69173;BME280;56280;49.662;8.408;2022-09-09T12:22:20;100286.09;;;23.28;50.91
69173;BME280;56280;49.662;8.408;2022-09-09T12:25:23;100311.94;;;23.38;51.29
69173;BME280;56280;49.662;8.408;2022-09-09T12:30:34;100302.16;;;23.23;50.75
69173;BME280;56280;49.662;8.408;2022-09-09T12:33:17;100301.94;;;23.25;49.59
69173;BME280;56280;49.662;8.408;2022-09-09T12:35:44;100291.94;;;23.05;49.83
69173;BME280;56280;49.662;8.408;2022-09-09T12:38:18;100299.03;;;23.06;50.02
69173;BME280;56280;49.662;8.408;2022-09-09T12:40:56;100291.97;;;23.12;51.00
69173;BME280;56280;49.662;8.408;2022-09-09T12:43:23;100278.81;;;23.22;51.23
69173;BME280;56280;49.662;8.408;2022-09-09T12:45:51;100290.06;;;23.06;52.13
69173;BME280;56280;49.662;8.408;2022-09-09T12:48:27;100283.19;;;23.10;51.36
69173;BME280;56280;49.662;8.408;2022-09-09T12:50:53;100272.59;;;22.88;51.16
69173;BME280;56280;49.662;8.408;2022-09-09T12:53:27;100273.25;;;22.77;52.80
69173;BME280;56280;49.662;8.408;2022-09-09T12:55:58;100287.38;;;22.79;54.02
69173;BME280;56280;49.662;8.408;2022-09-09T12:58:25;100285.31;;;22.61;53.91
69173;BME280;56280;49.662;8.408;2022-09-09T13:00:54;100297.81;;;22.35;58.79
69173;BME280;56280;49.662;8.408;2022-09-09T13:03:23;100294.59;;;22.05;64.38
69173;BME280;56280;49.662;8.408;2022-09-09T13:05:50;100280.75;;;21.66;63.73
69173;BME280;56280;49.662;8.408;2022-09-09T13:08:17;100290.41;;;21.47;66.56
69173;BME280;56280;49.662;8.408;2022-09-09T13:11:00;100284.44;;;21.17;65.47
69173;BME280;56280;49.662;8.408;2022-09-09T13:13:35;100284.94;;;20.99;68.08
69173;BME280;56280;49.662;8.408;2022-09-09T13:16:02;100279.13;;;20.67;69.04
69173;BME280;56280;49.662;8.408;2022-09-09T13:18:31;100291.84;;;20.52;68.75
69173;BME280;56280;49.662;8.408;2022-09-09T13:20:58;100291.06;;;20.36;67.10
69173;BME280;56280;49.662;8.408;2022-09-09T13:23:28;100276.09;;;20.12;68.73
69173;BME280;56280;49.662;8.408;2022-09-09T13:25:56;100274.88;;;20.15;69.47
69173;BME280;56280;49.662;8.408;2022-09-09T13:28:24;100277.09;;;20.04;71.05
69173;BME280;56280;49.662;8.408;2022-09-09T13:31:18;100264.63;;;20.03;72.77
69173;BME280;56280;49.662;8.408;2022-09-09T13:33:44;100261.66;;;20.20;75.18
69173;BME280;56280;49.662;8.408;2022-09-09T13:36:10;100275.91;;;20.35;72.58
69173;BME280;56280;49.662;8.408;2022-09-09T13:41:08;100279.03;;;20.61;72.07
69173;BME280;56280;49.662;8.408;2022-09-09T13:43:38;100263.63;;;20.54;68.55
69173;BME280;56280;49.662;8.408;2022-09-09T13:48:58;100289.81;;;20.82;68.42
69173;BME280;56280;49.662;8.408;2022-09-09T13:51:37;100284.28;;;20.90;67.17
69173;BME280;56280;49.662;8.408;2022-09-09T13:54:06;100296.72;;;21.20;66.82
69173;BME280;56280;49.662;8.408;2022-09-09T13:56:34;100295.28;;;21.24;66.07
69173;BME280;56280;49.662;8.408;2022-09-09T13:59:01;100289.63;;;21.19;67.33
69173;BME280;56280;49.662;8.408;2022-09-09T14:01:27;100280.03;;;21.09;65.62
69173;BME280;56280;49.662;8.408;2022-09-09T14:03:53;100272.75;;;21.10;64.33
69173;BME280;56280;49.662;8.408;2022-09-09T14:06:19;100265.88;;;21.07;65.64
69173;BME280;56280;49.662;8.408;2022-09-09T14:08:47;100252.69;;;20.91;64.60
69173;BME280;56280;49.662;8.408;2022-09-09T14:11:13;100283.13;;;21.06;64.41
69173;BME280;56280;49.662;8.408;2022-09-09T14:13:39;100282.31;;;21.06;63.55
69173;BME280;56280;49.662;8.408;2022-09-09T14:16:04;100270.06;;;21.10;63.74
69173;BME280;56280;49.662;8.408;2022-09-09T14:18:30;100270.09;;;21.17;64.13
69173;BME280;56280;49.662;8.408;2022-09-09T14:20:55;100279.72;;;21.26;63.01
69173;BME280;56280;49.662;8.408;2022-09-09T14:23:22;100268.03;;;21.19;63.07
69173;BME280;56280;49.662;8.408;2022-09-09T14:25:48;100276.00;;;21.27;63.24
69173;BME280;56280;49.662;8.408;2022-09-09T14:28:14;100278.69;;;21.27;64.95
69173;BME280;56280;49.662;8.408;2022-09-09T14:30:41;100270.09;;;21.17;64.65
69173;BME280;56280;49.662;8.408;2022-09-09T14:33:12;100274.88;;;21.15;65.10
69173;BME280;56280;49.662;8.408;2022-09-09T14:35:37;100269.66;;;21.13;66.20
69173;BME280;56280;49.662;8.408;2022-09-09T14:38:03;100265.53;;;21.17;66.83
69173;BME280;56280;49.662;8.408;2022-09-09T14:40:29;100230.75;;;21.01;66.40